Time;durP1;ratioP1;P1;durP2;ratioP2;P2;SDS_P1;SDS_P2;PMS_P1;PMS_P2;Temp;Humidity;BMP_temperature;BMP_pressure;BME280_temperature;BME280_humidity;BME280_pressure;Samples;Min_cycle;Max_cycle;Signal;HPM_P1;HPM_P2
2022/03/26 00:00:49;;;;;;;24.63;14.35;;;;;;;;;;4974319;28;20085;-69
2022/03/26 00:03:17;;;;;;;23.77;14.02;;;;;;;;;;4974507;28;20054;-69
2022/03/26 00:06:09;;;;;;;23.75;13.93;;;;;;;;;;4974634;28;20061;-69
2022/03/26 00:09:02;;;;;;;21.35;13.65;;;;;;;;;;4974383;28;20035;-69
2022/03/26 00:11:54;;;;;;;23.83;13.07;;;;;;;;;;4974423;28;20047;-69
2022/03/26 00:14:26;;;;;;;22.77;13.25;;;;;;;;;;4974550;28;20499;-69
2022/03/26 00:16:56;;;;;;;23.02;13.02;;;;;;;;;;4974304;28;20042;-69
2022/03/26 00:19:29;;;;;;;20.80;12.85;;;;;;;;;;4974434;28;20133;-69
2022/03/26 00:21:57;;;;;;;23.55;13.35;;;;;;;;;;4973780;28;20035;-69
2022/03/26 00:24:26;;;;;;;24.65;13.38;;;;;;;;;;4974363;28;20039;-69
2022/03/26 00:26:56;;;;;;;21.25;13.35;;;;;;;;;;4974167;28;20122;-69
2022/03/26 00:29:25;;;;;;;19.27;13.02;;;;;;;;;;4956955;28;20457;-69
2022/03/26 00:31:55;;;;;;;20.95;12.98;;;;;;;;;;4974523;28;20505;-69
2022/03/26 00:34:29;;;;;;;21.00;12.70;;;;;;;;;;4974264;28;20129;-69
2022/03/26 00:37:00;;;;;;;23.35;12.75;;;;;;;;;;4974097;28;20061;-69
2022/03/26 00:39:28;;;;;;;23.23;13.45;;;;;;;;;;4974120;28;20644;-69
2022/03/26 00:42:00;;;;;;;22.60;12.68;;;;;;;;;;4974005;28;20502;-69
2022/03/26 00:44:30;;;;;;;21.50;12.18;;;;;;;;;;4973951;28;20094;-69
2022/03/26 00:46:58;;;;;;;20.27;12.35;;;;;;;;;;4974471;28;20430;-70
2022/03/26 00:49:31;;;;;;;21.05;12.20;;;;;;;;;;4974490;28;20043;-69
2022/03/26 00:51:59;;;;;;;20.48;11.77;;;;;;;;;;4974225;28;20102;-69
2022/03/26 00:54:27;;;;;;;25.17;12.30;;;;;;;;;;4977265;28;20042;-69
2022/03/26 00:56:58;;;;;;;19.27;12.07;;;;;;;;;;4980290;28;20533;-69
2022/03/26 00:59:29;;;;;;;20.05;11.77;;;;;;;;;;4977745;28;20042;-69
2022/03/26 01:01:58;;;;;;;22.33;12.38;;;;;;;;;;4977436;28;20055;-69
2022/03/26 01:04:27;;;;;;;20.27;11.90;;;;;;;;;;4977183;28;20070;-69
2022/03/26 01:06:57;;;;;;;19.90;12.65;;;;;;;;;;4977707;28;20456;-69
2022/03/26 01:09:31;;;;;;;23.02;13.63;;;;;;;;;;4977350;28;20489;-70
2022/03/26 01:12:32;;;;;;;20.88;13.25;;;;;;;;;;4977048;28;20051;-69
2022/03/26 01:15:00;;;;;;;20.73;12.20;;;;;;;;;;4977321;28;20039;-69
2022/03/26 01:17:32;;;;;;;22.67;12.88;;;;;;;;;;4976766;28;20039;-69
2022/03/26 01:20:08;;;;;;;23.80;13.38;;;;;;;;;;4977568;28;20445;-69
2022/03/26 01:22:36;;;;;;;23.92;12.98;;;;;;;;;;4977030;28;20050;-69
2022/03/26 01:25:06;;;;;;;20.63;12.82;;;;;;;;;;4977102;28;20115;-69
2022/03/26 01:27:38;;;;;;;21.13;13.10;;;;;;;;;;4977199;28;20041;-69
2022/03/26 01:30:08;;;;;;;24.27;13.60;;;;;;;;;;4977201;28;20565;-69
2022/03/26 01:33:05;;;;;;;23.08;13.70;;;;;;;;;;4977005;28;20118;-69
2022/03/26 01:35:32;;;;;;;23.98;13.30;;;;;;;;;;4976301;28;20113;-69
2022/03/26 01:38:32;;;;;;;26.65;13.43;;;;;;;;;;4976120;28;20050;-69
2022/03/26 01:41:02;;;;;;;23.23;14.10;;;;;;;;;;4977101;28;20059;-70
2022/03/26 01:43:54;;;;;;;24.50;13.30;;;;;;;;;;4976315;28;20481;-69
2022/03/26 01:46:23;;;;;;;22.77;13.43;;;;;;;;;;4976619;28;20051;-70
2022/03/26 01:48:55;;;;;;;23.00;13.25;;;;;;;;;;4976636;28;20038;-70
2022/03/26 01:51:23;;;;;;;22.65;13.68;;;;;;;;;;4976810;28;20034;-70
2022/03/26 01:53:53;;;;;;;20.50;13.07;;;;;;;;;;4976881;28;20424;-69
2022/03/26 01:56:27;;;;;;;21.15;13.52;;;;;;;;;;4976232;28;20481;-69
2022/03/26 01:58:59;;;;;;;22.77;13.70;;;;;;;;;;4976680;28;20513;-69
2022/03/26 02:01:33;;;;;;;21.90;12.85;;;;;;;;;;4959057;28;20142;-69
2022/03/26 02:04:15;;;;;;;26.08;13.80;;;;;;;;;;4976512;28;20081;-69
2022/03/26 02:06:43;;;;;;;24.42;13.55;;;;;;;;;;4976134;28;20125;-69
2022/03/26 02:09:15;;;;;;;22.20;13.35;;;;;;;;;;4975967;28;20046;-69
2022/03/26 02:11:45;;;;;;;25.15;13.80;;;;;;;;;;4976026;28;20126;-69
2022/03/26 02:14:16;;;;;;;21.30;12.80;;;;;;;;;;4976201;28;20057;-69
2022/03/26 02:16:44;;;;;;;24.23;12.38;;;;;;;;;;4976519;28;20042;-69
2022/03/26 02:19:18;;;;;;;22.55;13.48;;;;;;;;;;4976259;28;20499;-69
2022/03/26 02:21:47;;;;;;;25.52;15.02;;;;;;;;;;4976322;28;20050;-69
2022/03/26 02:24:20;;;;;;;24.20;13.52;;;;;;;;;;4976024;28;20043;-70
2022/03/26 02:26:47;;;;;;;23.83;13.48;;;;;;;;;;4976147;28;20049;-69
2022/03/26 02:29:15;;;;;;;26.70;14.15;;;;;;;;;;4975695;28;20057;-69
2022/03/26 02:32:07;;;;;;;24.92;14.10;;;;;;;;;;4975936;28;20039;-69
2022/03/26 02:34:35;;;;;;;25.75;13.88;;;;;;;;;;4974784;28;20043;-69
2022/03/26 02:37:24;;;;;;;28.98;13.93;;;;;;;;;;4975455;28;20507;-69
2022/03/26 02:39:54;;;;;;;22.60;13.30;;;;;;;;;;4975628;28;20490;-69
2022/03/26 02:42:25;;;;;;;26.20;14.88;;;;;;;;;;4975976;28;20039;-69
2022/03/26 02:48:12;;;;;;;27.45;14.90;;;;;;;;;;4956022;29;20054;-68
2022/03/26 02:50:44;;;;;;;28.10;15.48;;;;;;;;;;4957172;29;20446;-69
2022/03/26 02:53:13;;;;;;;24.80;14.00;;;;;;;;;;4955073;29;20122;-69
2022/03/26 02:55:40;;;;;;;29.85;15.18;;;;;;;;;;4938176;29;20441;-69
2022/03/26 02:58:09;;;;;;;27.23;15.23;;;;;;;;;;4956555;29;20066;-67
2022/03/26 03:00:42;;;;;;;28.85;15.70;;;;;;;;;;4956288;29;20047;-69
2022/03/26 03:03:10;;;;;;;25.95;15.70;;;;;;;;;;4955976;29;20050;-69
2022/03/26 03:06:02;;;;;;;27.95;15.43;;;;;;;;;;4956197;29;20043;-69
2022/03/26 03:08:30;;;;;;;29.98;14.27;;;;;;;;;;4954836;29;20035;-70
2022/03/26 03:11:03;;;;;;;28.20;15.18;;;;;;;;;;4955792;29;20489;-68
2022/03/26 03:13:31;;;;;;;28.55;16.05;;;;;;;;;;4954329;29;20039;-67
2022/03/26 03:16:05;;;;;;;26.25;15.00;;;;;;;;;;4955623;29;20054;-68
2022/03/26 03:18:33;;;;;;;29.05;16.08;;;;;;;;;;4954685;28;20047;-68
2022/03/26 03:21:04;;;;;;;26.48;15.75;;;;;;;;;;4954875;28;20050;-67
2022/03/26 03:23:33;;;;;;;28.35;15.68;;;;;;;;;;4955349;29;20040;-68
2022/03/26 03:26:00;;;;;;;26.52;15.82;;;;;;;;;;4955222;29;20049;-67
2022/03/26 03:28:28;;;;;;;28.77;16.60;;;;;;;;;;4955569;29;20047;-68
2022/03/26 03:30:56;;;;;;;26.88;16.10;;;;;;;;;;4954782;29;20055;-69
2022/03/26 03:33:25;;;;;;;28.08;16.15;;;;;;;;;;4954451;29;20039;-69
2022/03/26 03:35:53;;;;;;;28.60;16.50;;;;;;;;;;4955188;29;20066;-69
2022/03/26 03:38:20;;;;;;;27.73;16.60;;;;;;;;;;4953842;29;20046;-69
2022/03/26 03:40:50;;;;;;;22.92;15.52;;;;;;;;;;4955326;29;20102;-69
2022/03/26 03:43:19;;;;;;;27.42;16.38;;;;;;;;;;4955462;29;20039;-69
2022/03/26 03:45:51;;;;;;;26.98;15.82;;;;;;;;;;4953842;29;20126;-69
2022/03/26 03:48:18;;;;;;;27.02;16.20;;;;;;;;;;4954956;29;20494;-69
2022/03/26 03:50:53;;;;;;;26.17;15.05;;;;;;;;;;4955627;29;20039;-69
2022/03/26 03:53:21;;;;;;;28.35;15.40;;;;;;;;;;4955350;29;20042;-69
2022/03/26 03:55:50;;;;;;;26.55;15.40;;;;;;;;;;4955179;29;20457;-69
2022/03/26 03:58:18;;;;;;;25.95;15.00;;;;;;;;;;5024580;23;20429;-69
2022/03/26 04:00:48;;;;;;;29.67;16.38;;;;;;;;;;4993522;28;20105;-68
2022/03/26 04:03:17;;;;;;;28.85;16.38;;;;;;;;;;4992633;28;20108;-69
2022/03/26 04:05:47;;;;;;;37.00;18.20;;;;;;;;;;4994272;28;20085;-69
2022/03/26 04:08:16;;;;;;;34.97;19.27;;;;;;;;;;4992002;28;20134;-69
2022/03/26 04:11:08;;;;;;;34.70;18.88;;;;;;;;;;4976218;28;20050;-69
2022/03/26 04:14:01;;;;;;;35.67;18.80;;;;;;;;;;4993953;28;20556;-69
2022/03/26 04:16:29;;;;;;;30.45;18.23;;;;;;;;;;4993934;28;20493;-69
2022/03/26 04:19:03;;;;;;;36.00;18.95;;;;;;;;;;4993735;28;20042;-69
2022/03/26 04:21:35;;;;;;;36.80;19.58;;;;;;;;;;4993748;28;20400;-69
2022/03/26 04:24:05;;;;;;;31.67;17.75;;;;;;;;;;4993884;28;20050;-69
2022/03/26 04:26:38;;;;;;;35.08;18.30;;;;;;;;;;4993952;28;20100;-69
2022/03/26 04:29:12;;;;;;;37.25;19.17;;;;;;;;;;4994021;28;20077;-69
2022/03/26 04:32:06;;;;;;;33.08;18.20;;;;;;;;;;4997632;28;20069;-69
2022/03/26 04:41:14;;;;;;;31.55;16.95;;;;;;;;;;4997431;28;20065;-69
2022/03/26 04:44:06;;;;;;;37.05;18.33;;;;;;;;;;4996913;28;20061;-69
2022/03/26 04:46:59;;;;;;;36.15;18.23;;;;;;;;;;4997570;28;20050;-69
2022/03/26 04:49:27;;;;;;;35.92;18.17;;;;;;;;;;4996625;28;20046;-69
2022/03/26 04:51:54;;;;;;;37.65;20.00;;;;;;;;;;5031532;22;20074;-68
2022/03/26 04:58:48;;;;;;;31.80;18.42;;;;;;;;;;4958041;29;20058;-68
2022/03/26 05:01:18;;;;;;;38.35;19.30;;;;;;;;;;4958375;29;20047;-68
2022/03/26 05:03:49;;;;;;;35.20;19.67;;;;;;;;;;4958132;29;20047;-68
2022/03/26 05:06:17;;;;;;;42.70;20.75;;;;;;;;;;4964743;28;20050;-68
2022/03/26 05:08:44;;;;;;;41.35;21.85;;;;;;;;;;4969968;28;20053;-68
2022/03/26 05:11:13;;;;;;;40.60;21.20;;;;;;;;;;4976390;28;20465;-68
2022/03/26 05:13:41;;;;;;;36.90;19.85;;;;;;;;;;4977189;28;20078;-69
2022/03/26 05:16:09;;;;;;;39.67;21.70;;;;;;;;;;4977522;28;20050;-69
2022/03/26 05:18:38;;;;;;;36.72;22.08;;;;;;;;;;4977456;28;20054;-68
2022/03/26 05:21:07;;;;;;;51.85;31.40;;;;;;;;;;4977644;28;20038;-68
2022/03/26 05:23:35;;;;;;;51.30;30.67;;;;;;;;;;4976405;28;20130;-68
2022/03/26 05:26:04;;;;;;;40.05;22.13;;;;;;;;;;4976207;28;20038;-68
2022/03/26 05:28:32;;;;;;;31.15;21.20;;;;;;;;;;4977579;28;20102;-69
2022/03/26 05:31:25;;;;;;;32.33;22.40;;;;;;;;;;5054520;23;20054;-72
2022/03/26 05:33:53;;;;;;;37.03;24.83;;;;;;;;;;4976742;28;20041;-72
2022/03/26 05:36:20;;;;;;;33.55;21.38;;;;;;;;;;4959541;28;20054;-72
2022/03/26 05:39:01;;;;;;;33.25;23.10;;;;;;;;;;5032580;23;20072;-69
2022/03/26 05:41:29;;;;;;;33.38;21.50;;;;;;;;;;4936882;28;20059;-69
2022/03/26 05:47:08;;;;;;;47.60;29.75;;;;;;;;;;4937187;29;20499;-70
2022/03/26 05:49:40;;;;;;;36.25;25.50;;;;;;;;;;4937297;29;20044;-72
2022/03/26 05:52:09;;;;;;;38.42;25.10;;;;;;;;;;4939317;28;20059;-70
2022/03/26 05:54:40;;;;;;;37.33;25.95;;;;;;;;;;4939861;29;20101;-72
2022/03/26 05:57:21;;;;;;;51.80;30.38;;;;;;;;;;4956658;28;20046;-72
2022/03/26 06:02:53;;;;;;;49.47;29.88;;;;;;;;;;4957127;29;20120;-72
2022/03/26 06:05:51;;;;;;;44.38;28.48;;;;;;;;;;4956993;29;20126;-72
2022/03/26 06:08:44;;;;;;;39.63;26.63;;;;;;;;;;4956918;28;20055;-72
2022/03/26 06:14:48;;;;;;;41.40;27.55;;;;;;;;;;4956084;28;20441;-68
2022/03/26 06:24:51;;;;;;;35.95;24.92;;;;;;;;;;4936631;29;20398;-68
2022/03/26 06:27:19;;;;;;;40.00;30.17;;;;;;;;;;4954126;28;20977;-69
2022/03/26 06:29:57;;;;;;;38.83;30.45;;;;;;;;;;4937522;29;20402;-68
2022/03/26 06:32:28;;;;;;;43.05;33.58;;;;;;;;;;4945202;28;20512;-68
2022/03/26 06:35:00;;;;;;;35.75;27.60;;;;;;;;;;4937367;29;20071;-68
2022/03/26 06:37:52;;;;;;;34.13;26.92;;;;;;;;;;4937299;29;20071;-69
2022/03/26 06:40:21;;;;;;;31.45;24.30;;;;;;;;;;4936917;29;20090;-67
2022/03/26 06:42:50;;;;;;;29.10;23.98;;;;;;;;;;4937188;29;20487;-69
2022/03/26 06:45:20;;;;;;;26.90;23.77;;;;;;;;;;4937112;29;20047;-69
2022/03/26 06:47:49;;;;;;;30.17;23.73;;;;;;;;;;4937147;29;20043;-68
2022/03/26 06:50:16;;;;;;;27.20;21.55;;;;;;;;;;4937049;29;20047;-69
2022/03/26 06:52:44;;;;;;;27.35;20.38;;;;;;;;;;4938635;29;20047;-69
2022/03/26 06:55:12;;;;;;;19.27;16.45;;;;;;;;;;4955535;29;20046;-69
2022/03/26 06:57:41;;;;;;;21.02;16.17;;;;;;;;;;4956518;29;20450;-69
2022/03/26 07:00:09;;;;;;;19.67;17.20;;;;;;;;;;4948725;29;20490;-69
2022/03/26 07:02:39;;;;;;;17.23;15.35;;;;;;;;;;4952576;29;20441;-69
2022/03/26 07:05:07;;;;;;;21.77;16.85;;;;;;;;;;4956192;29;20498;-69
2022/03/26 07:07:36;;;;;;;19.58;17.13;;;;;;;;;;4955932;29;20050;-69
2022/03/26 07:10:06;;;;;;;20.98;17.05;;;;;;;;;;4955850;29;20043;-69
2022/03/26 07:12:36;;;;;;;41.97;23.10;;;;;;;;;;4937069;29;20181;-70
2022/03/26 07:15:08;;;;;;;25.90;22.50;;;;;;;;;;4936703;29;20189;-70
2022/03/26 07:17:40;;;;;;;34.25;23.10;;;;;;;;;;4936762;29;20107;-70
2022/03/26 07:20:09;;;;;;;27.83;19.23;;;;;;;;;;4936818;29;20085;-70
2022/03/26 07:22:38;;;;;;;18.10;13.77;;;;;;;;;;4936380;29;20040;-70
2022/03/26 07:25:12;;;;;;;16.13;13.13;;;;;;;;;;4936453;29;20068;-70
2022/03/26 07:27:41;;;;;;;20.70;13.95;;;;;;;;;;4936538;29;20111;-71
2022/03/26 07:30:11;;;;;;;17.45;12.93;;;;;;;;;;4936635;29;20043;-70
2022/03/26 07:32:44;;;;;;;19.25;12.50;;;;;;;;;;4936412;29;20047;-70
2022/03/26 07:35:13;;;;;;;12.70;11.40;;;;;;;;;;4936530;29;20071;-70
2022/03/26 07:37:45;;;;;;;23.25;12.57;;;;;;;;;;4936609;29;20044;-70
2022/03/26 07:40:14;;;;;;;12.93;11.48;;;;;;;;;;4936234;29;20478;-69
2022/03/26 07:42:43;;;;;;;14.50;11.85;;;;;;;;;;4936290;29;20054;-69
2022/03/26 07:45:12;;;;;;;23.27;11.23;;;;;;;;;;4936361;29;20047;-68
2022/03/26 07:47:44;;;;;;;18.30;11.88;;;;;;;;;;4936534;29;20067;-68
2022/03/26 07:50:12;;;;;;;13.38;10.27;;;;;;;;;;4936015;29;20495;-68
2022/03/26 07:52:43;;;;;;;17.08;10.50;;;;;;;;;;4936185;29;20044;-68
2022/03/26 07:55:12;;;;;;;14.25;10.15;;;;;;;;;;4936721;29;20147;-69
2022/03/26 07:57:40;;;;;;;15.48;9.93;;;;;;;;;;4938332;29;20043;-69
2022/03/26 08:00:09;;;;;;;13.85;9.70;;;;;;;;;;4943406;29;20114;-69
2022/03/26 08:02:41;;;;;;;15.43;10.25;;;;;;;;;;4941973;29;20051;-67
2022/03/26 08:05:10;;;;;;;12.10;9.68;;;;;;;;;;4959202;28;20047;-68
2022/03/26 08:07:43;;;;;;;25.55;11.02;;;;;;;;;;4961376;29;20043;-68
2022/03/26 08:10:13;;;;;;;13.30;10.18;;;;;;;;;;4952736;28;20039;-67
2022/03/26 08:12:42;;;;;;;15.40;10.23;;;;;;;;;;4956349;29;20075;-67
2022/03/26 08:15:12;;;;;;;25.67;16.00;;;;;;;;;;4961346;29;20086;-67
2022/03/26 08:17:42;;;;;;;14.07;9.18;;;;;;;;;;4961409;29;20058;-69
2022/03/26 08:20:11;;;;;;;15.65;9.30;;;;;;;;;;4961811;28;20051;-69
2022/03/26 08:22:41;;;;;;;13.77;10.13;;;;;;;;;;4943934;29;20054;-69
2022/03/26 08:28:21;;;;;;;14.82;9.73;;;;;;;;;;5030266;23;20086;-69
2022/03/26 08:30:49;;;;;;;20.63;13.77;;;;;;;;;;4980214;28;20138;-69
2022/03/26 08:33:17;;;;;;;17.85;10.13;;;;;;;;;;4980407;28;20043;-69
2022/03/26 08:35:44;;;;;;;12.13;9.05;;;;;;;;;;4981842;28;20047;-68
2022/03/26 08:38:12;;;;;;;15.98;9.38;;;;;;;;;;4980262;28;20051;-69
2022/03/26 08:40:40;;;;;;;11.93;8.23;;;;;;;;;;4980884;28;20063;-70
2022/03/26 08:43:08;;;;;;;14.82;10.20;;;;;;;;;;4980303;28;20058;-69
2022/03/26 08:45:35;;;;;;;14.25;9.80;;;;;;;;;;4980824;28;20456;-68
2022/03/26 08:48:03;;;;;;;13.45;8.05;;;;;;;;;;4980998;28;20504;-68
2022/03/26 08:50:31;;;;;;;16.20;10.13;;;;;;;;;;4980111;28;20089;-68
2022/03/26 08:52:59;;;;;;;13.45;8.30;;;;;;;;;;4980292;28;20050;-69
2022/03/26 08:55:26;;;;;;;22.10;14.75;;;;;;;;;;4980271;28;20078;-69
2022/03/26 08:57:54;;;;;;;14.70;9.85;;;;;;;;;;4980455;28;20045;-69
2022/03/26 09:00:22;;;;;;;26.05;19.45;;;;;;;;;;4980353;28;20070;-69
2022/03/26 09:02:49;;;;;;;12.57;10.27;;;;;;;;;;4980105;28;20133;-69
2022/03/26 09:05:17;;;;;;;13.50;9.07;;;;;;;;;;4980496;28;20046;-69
2022/03/26 09:07:45;;;;;;;21.35;11.25;;;;;;;;;;4995057;28;20045;-69
2022/03/26 09:10:12;;;;;;;11.32;8.00;;;;;;;;;;4999616;28;20073;-69
2022/03/26 09:12:40;;;;;;;31.02;23.20;;;;;;;;;;4999831;28;20046;-69
2022/03/26 09:15:08;;;;;;;14.30;9.77;;;;;;;;;;4999148;28;20078;-69
2022/03/26 09:17:36;;;;;;;12.65;9.48;;;;;;;;;;4996354;28;20054;-69
2022/03/26 09:20:04;;;;;;;15.65;10.48;;;;;;;;;;4996425;28;20046;-69
2022/03/26 09:22:32;;;;;;;11.30;8.30;;;;;;;;;;4996324;28;20042;-69
2022/03/26 09:25:00;;;;;;;11.95;8.20;;;;;;;;;;4996298;28;20082;-69
2022/03/26 09:27:28;;;;;;;12.73;8.02;;;;;;;;;;4996910;28;20145;-69
2022/03/26 09:29:56;;;;;;;11.23;9.07;;;;;;;;;;4997046;28;20073;-69
2022/03/26 09:32:23;;;;;;;14.73;8.85;;;;;;;;;;4996454;28;20108;-69
2022/03/26 09:34:51;;;;;;;10.95;7.82;;;;;;;;;;4996095;28;20565;-69
2022/03/26 09:37:18;;;;;;;10.43;8.07;;;;;;;;;;4996051;28;20516;-69
2022/03/26 09:39:47;;;;;;;11.18;8.30;;;;;;;;;;4990065;28;20043;-68
2022/03/26 09:42:15;;;;;;;12.65;9.50;;;;;;;;;;4976737;28;20049;-69
2022/03/26 09:44:46;;;;;;;11.05;8.48;;;;;;;;;;4976631;28;20049;-68
2022/03/26 09:47:16;;;;;;;13.55;8.32;;;;;;;;;;4976510;28;20049;-70
2022/03/26 09:49:45;;;;;;;9.77;7.70;;;;;;;;;;4976743;28;20105;-69
2022/03/26 09:52:15;;;;;;;16.05;11.20;;;;;;;;;;4976533;28;20062;-70
2022/03/26 09:54:49;;;;;;;16.25;9.98;;;;;;;;;;4976597;28;20098;-70
2022/03/26 09:57:49;;;;;;;14.38;8.45;;;;;;;;;;4976794;28;20043;-69
2022/03/26 10:00:17;;;;;;;14.20;8.73;;;;;;;;;;4977123;28;20386;-69
2022/03/26 10:03:10;;;;;;;13.32;8.23;;;;;;;;;;4976248;28;20051;-69
2022/03/26 10:05:37;;;;;;;12.18;8.07;;;;;;;;;;4959124;28;20441;-70
2022/03/26 10:08:21;;;;;;;15.40;11.60;;;;;;;;;;4992923;28;20038;-71
2022/03/26 10:10:50;;;;;;;21.08;12.00;;;;;;;;;;4995675;28;20097;-71
2022/03/26 10:13:44;;;;;;;12.07;7.75;;;;;;;;;;4996398;28;20049;-70
2022/03/26 10:16:15;;;;;;;16.15;9.63;;;;;;;;;;4995718;28;20052;-70
2022/03/26 10:18:50;;;;;;;11.98;8.43;;;;;;;;;;4995545;28;20050;-70
2022/03/26 10:21:20;;;;;;;11.73;8.30;;;;;;;;;;4995650;28;20046;-70
2022/03/26 10:23:55;;;;;;;11.00;7.80;;;;;;;;;;4995721;28;20047;-69
2022/03/26 10:26:23;;;;;;;13.52;9.75;;;;;;;;;;4994633;28;20568;-69
2022/03/26 10:28:52;;;;;;;13.52;8.18;;;;;;;;;;4975313;28;20071;-70
2022/03/26 10:34:15;;;;;;;14.00;9.38;;;;;;;;;;4975587;28;20441;-70
2022/03/26 10:36:44;;;;;;;12.77;9.75;;;;;;;;;;4975426;28;20382;-69
2022/03/26 10:39:16;;;;;;;12.15;7.85;;;;;;;;;;4975597;28;20043;-70
2022/03/26 10:41:44;;;;;;;11.00;8.35;;;;;;;;;;4960295;28;20527;-70
2022/03/26 10:44:13;;;;;;;13.25;9.27;;;;;;;;;;4975738;28;20039;-70
2022/03/26 10:50:07;;;;;;;11.38;8.05;;;;;;;;;;4929131;29;20410;-76
2022/03/26 10:52:34;;;;;;;16.50;11.27;;;;;;;;;;4936747;29;20040;-76
2022/03/26 10:55:02;;;;;;;34.13;22.60;;;;;;;;;;4941470;29;20043;-76
2022/03/26 10:57:31;;;;;;;17.08;11.00;;;;;;;;;;4919835;29;20052;-76
2022/03/26 10:59:58;;;;;;;14.25;9.80;;;;;;;;;;4936627;29;20043;-74
2022/03/26 11:02:26;;;;;;;12.57;8.65;;;;;;;;;;4929966;29;20044;-76
2022/03/26 11:04:54;;;;;;;11.32;7.45;;;;;;;;;;4920166;29;20125;-76
2022/03/26 11:07:23;;;;;;;9.70;7.55;;;;;;;;;;4918118;29;20131;-76
2022/03/26 11:09:50;;;;;;;10.63;6.90;;;;;;;;;;4918623;29;20055;-75
2022/03/26 11:12:19;;;;;;;10.98;7.10;;;;;;;;;;4917801;29;20048;-72
2022/03/26 11:14:48;;;;;;;11.23;7.90;;;;;;;;;;4931955;29;20047;-72
2022/03/26 11:17:32;;;;;;;13.60;8.35;;;;;;;;;;4929311;29;20140;-72
2022/03/26 11:20:03;;;;;;;14.93;8.45;;;;;;;;;;4931298;29;20044;-73
2022/03/26 11:22:38;;;;;;;12.95;8.40;;;;;;;;;;4917780;29;20048;-73
2022/03/26 11:25:31;;;;;;;12.93;8.38;;;;;;;;;;4919797;29;20051;-74
2022/03/26 11:28:15;;;;;;;18.15;8.85;;;;;;;;;;4917401;29;20139;-75
2022/03/26 11:30:55;;;;;;;12.23;8.10;;;;;;;;;;4931529;29;20047;-75
2022/03/26 11:33:24;;;;;;;13.43;8.90;;;;;;;;;;4935548;29;20047;-73
2022/03/26 11:35:56;;;;;;;14.05;7.18;;;;;;;;;;4935020;29;20082;-75
2022/03/26 11:38:24;;;;;;;12.60;8.52;;;;;;;;;;4932092;29;20051;-72
2022/03/26 11:40:54;;;;;;;15.20;7.70;;;;;;;;;;4935149;29;20028;-72
2022/03/26 11:43:43;;;;;;;13.93;8.25;;;;;;;;;;4936257;29;20070;-74
2022/03/26 11:51:59;;;;;;;14.20;9.02;;;;;;;;;;4936476;29;20103;-74
2022/03/26 11:54:34;;;;;;;14.45;8.43;;;;;;;;;;4936347;29;20047;-73
2022/03/26 11:57:08;;;;;;;15.68;9.30;;;;;;;;;;4919184;29;20414;-74
2022/03/26 11:59:40;;;;;;;15.23;8.85;;;;;;;;;;4936360;29;20063;-73
2022/03/26 12:02:17;;;;;;;17.63;8.10;;;;;;;;;;4935784;29;20115;-73
2022/03/26 12:06:35;;;;;;;12.13;7.85;;;;;;;;;;4935785;29;20066;-71
2022/03/26 12:07:48;;;;;;;14.82;9.00;;;;;;;;;;4935426;29;20044;-74
2022/03/26 12:10:20;;;;;;;15.25;8.80;;;;;;;;;;4935874;29;20127;-74
2022/03/26 12:13:14;;;;;;;22.05;9.38;;;;;;;;;;4936025;29;20400;-71
2022/03/26 12:16:07;;;;;;;19.23;10.55;;;;;;;;;;4936262;29;20047;-71
2022/03/26 12:19:00;;;;;;;13.80;8.38;;;;;;;;;;4935722;29;20067;-71
2022/03/26 12:21:49;;;;;;;14.48;8.27;;;;;;;;;;4936042;29;20051;-73
2022/03/26 12:24:29;;;;;;;13.95;8.65;;;;;;;;;;4935768;29;20490;-73
2022/03/26 12:27:05;;;;;;;14.25;9.32;;;;;;;;;;4918730;29;20051;-73
2022/03/26 12:29:40;;;;;;;12.93;8.80;;;;;;;;;;4919173;29;20443;-73
2022/03/26 12:32:08;;;;;;;16.50;9.70;;;;;;;;;;4936156;29;20040;-73
2022/03/26 12:34:55;;;;;;;12.85;8.90;;;;;;;;;;4935450;29;20036;-73
2022/03/26 12:37:24;;;;;;;15.00;9.10;;;;;;;;;;4935830;29;20483;-73
2022/03/26 12:40:00;;;;;;;13.82;7.85;;;;;;;;;;4935922;29;20040;-73
2022/03/26 12:42:28;;;;;;;11.68;8.48;;;;;;;;;;4935540;29;20051;-73
2022/03/26 12:44:59;;;;;;;11.50;8.65;;;;;;;;;;4938557;29;20065;-73
2022/03/26 12:47:53;;;;;;;17.17;11.30;;;;;;;;;;4940363;29;20119;-73
2022/03/26 12:50:24;;;;;;;24.08;12.05;;;;;;;;;;4939223;29;20052;-73
2022/03/26 12:52:56;;;;;;;17.55;9.00;;;;;;;;;;4939515;29;20043;-73
2022/03/26 12:55:26;;;;;;;16.35;9.20;;;;;;;;;;4939345;29;20043;-73
2022/03/26 13:00:41;;;;;;;14.70;8.65;;;;;;;;;;4939188;29;20091;-73
2022/03/26 13:03:10;;;;;;;15.05;9.65;;;;;;;;;;4938676;29;20453;-73
2022/03/26 13:05:43;;;;;;;14.10;9.45;;;;;;;;;;4939220;29;20039;-73
2022/03/26 13:08:12;;;;;;;17.40;10.20;;;;;;;;;;4939303;29;20067;-73
2022/03/26 13:10:42;;;;;;;23.02;15.10;;;;;;;;;;4938769;29;20498;-73
2022/03/26 13:13:17;;;;;;;13.43;9.32;;;;;;;;;;4939185;29;20054;-73
2022/03/26 13:15:59;;;;;;;17.98;9.65;;;;;;;;;;4939020;29;20046;-73
2022/03/26 13:18:27;;;;;;;14.40;10.57;;;;;;;;;;4938591;29;20095;-73
2022/03/26 13:21:04;;;;;;;16.48;10.10;;;;;;;;;;4939070;29;20048;-73
2022/03/26 13:23:38;;;;;;;16.38;10.25;;;;;;;;;;4938783;29;20046;-73
2022/03/26 13:26:07;;;;;;;19.42;11.00;;;;;;;;;;4938727;29;20039;-73
2022/03/26 13:28:37;;;;;;;21.42;11.77;;;;;;;;;;4938402;29;20120;-73
2022/03/26 13:31:24;;;;;;;15.35;9.98;;;;;;;;;;4921397;29;20051;-73
2022/03/26 13:33:51;;;;;;;18.23;11.70;;;;;;;;;;4938963;29;20039;-73
2022/03/26 13:36:29;;;;;;;21.00;11.52;;;;;;;;;;4938185;29;20055;-73
2022/03/26 13:39:00;;;;;;;15.50;9.05;;;;;;;;;;4938519;29;20050;-74
2022/03/26 13:41:28;;;;;;;17.48;9.98;;;;;;;;;;4921998;29;20094;-73
2022/03/26 13:43:56;;;;;;;13.55;9.82;;;;;;;;;;4921336;29;20046;-73
2022/03/26 13:46:26;;;;;;;14.82;8.98;;;;;;;;;;4938330;29;20094;-71
2022/03/26 13:48:55;;;;;;;12.20;8.20;;;;;;;;;;4937629;29;20062;-72
2022/03/26 13:51:31;;;;;;;13.02;8.50;;;;;;;;;;4939530;29;20052;-73
2022/03/26 13:54:07;;;;;;;21.73;10.27;;;;;;;;;;4938183;29;20474;-72
2022/03/26 13:56:40;;;;;;;15.60;9.63;;;;;;;;;;4938030;29;20075;-73
2022/03/26 13:59:11;;;;;;;13.30;8.52;;;;;;;;;;4938392;29;20051;-73
2022/03/26 14:01:41;;;;;;;14.73;8.82;;;;;;;;;;4937621;29;20039;-73
2022/03/26 14:04:26;;;;;;;17.60;8.52;;;;;;;;;;4937740;29;20487;-72
2022/03/26 14:06:53;;;;;;;14.48;9.32;;;;;;;;;;4937976;29;20127;-72
2022/03/26 14:09:35;;;;;;;10.50;7.82;;;;;;;;;;4920589;29;20402;-72
2022/03/26 14:12:03;;;;;;;13.88;9.73;;;;;;;;;;4938058;29;20095;-72
2022/03/26 14:14:31;;;;;;;11.85;8.38;;;;;;;;;;4938120;29;20055;-72
2022/03/26 14:16:58;;;;;;;12.35;7.97;;;;;;;;;;4937522;29;20040;-72
2022/03/26 14:19:28;;;;;;;15.65;8.98;;;;;;;;;;4937347;29;20050;-72
2022/03/26 14:22:20;;;;;;;21.92;8.82;;;;;;;;;;4937805;29;20478;-72
2022/03/26 14:25:14;;;;;;;13.98;8.40;;;;;;;;;;4937596;29;20075;-72
2022/03/26 14:28:09;;;;;;;15.73;9.55;;;;;;;;;;4937388;29;20062;-72
2022/03/26 14:33:57;;;;;;;16.85;8.27;;;;;;;;;;5007559;22;20055;-70
2022/03/26 14:36:45;;;;;;;13.43;8.60;;;;;;;;;;4956240;29;20054;-71
2022/03/26 14:39:12;;;;;;;15.75;9.05;;;;;;;;;;4956553;29;20517;-70
2022/03/26 14:41:40;;;;;;;13.80;7.75;;;;;;;;;;4956235;29;20531;-71
2022/03/26 14:44:07;;;;;;;15.63;8.48;;;;;;;;;;4956270;29;20051;-71
2022/03/26 14:46:35;;;;;;;16.70;8.57;;;;;;;;;;4956498;29;20436;-71
2022/03/26 14:49:02;;;;;;;18.00;9.73;;;;;;;;;;4956442;29;20043;-70
2022/03/26 14:51:30;;;;;;;12.70;7.28;;;;;;;;;;4956474;29;20061;-71
2022/03/26 14:53:58;;;;;;;10.75;7.40;;;;;;;;;;4956313;29;20039;-69
2022/03/26 14:56:25;;;;;;;12.30;6.97;;;;;;;;;;4956029;29;20082;-69
2022/03/26 14:58:53;;;;;;;10.77;7.13;;;;;;;;;;4956247;29;20039;-70
2022/03/26 15:01:26;;;;;;;15.50;7.72;;;;;;;;;;4956297;29;20446;-70
2022/03/26 15:03:55;;;;;;;12.57;8.20;;;;;;;;;;4955759;29;20051;-71
2022/03/26 15:06:23;;;;;;;16.63;7.88;;;;;;;;;;4956384;29;20055;-71
2022/03/26 15:08:51;;;;;;;16.23;8.38;;;;;;;;;;4955588;29;20157;-71
2022/03/26 15:11:18;;;;;;;16.42;8.38;;;;;;;;;;4955748;29;20152;-69
2022/03/26 15:13:46;;;;;;;12.45;7.30;;;;;;;;;;4955637;28;20039;-71
2022/03/26 15:16:14;;;;;;;19.90;8.35;;;;;;;;;;4955579;29;20053;-71
2022/03/26 15:18:42;;;;;;;14.13;7.25;;;;;;;;;;4955741;29;20062;-70
2022/03/26 15:21:09;;;;;;;14.32;8.02;;;;;;;;;;4955629;29;20051;-71
2022/03/26 15:23:37;;;;;;;18.65;7.97;;;;;;;;;;4956006;29;20058;-70
2022/03/26 15:26:04;;;;;;;15.23;7.95;;;;;;;;;;4955739;29;20053;-70
2022/03/26 15:28:32;;;;;;;13.07;7.75;;;;;;;;;;4955988;29;20063;-71
2022/03/26 15:30:59;;;;;;;24.35;10.02;;;;;;;;;;4955963;29;20122;-71
2022/03/26 15:33:27;;;;;;;12.25;7.38;;;;;;;;;;4955537;29;20074;-69
2022/03/26 15:35:55;;;;;;;31.10;15.60;;;;;;;;;;4955168;29;20126;-71
2022/03/26 15:38:22;;;;;;;17.48;10.90;;;;;;;;;;4955466;29;20413;-70
2022/03/26 15:40:50;;;;;;;24.73;14.13;;;;;;;;;;4955431;29;20039;-69
2022/03/26 15:43:17;;;;;;;29.52;16.75;;;;;;;;;;4955331;29;20035;-71